createdAt,value
2022-10-22T00:10:36.791Z,13.5
2022-10-22T00:15:56.014Z,13.51
2022-10-22T00:26:34.695Z,13.54
2022-10-22T00:33:08.858Z,13.51
2022-10-22T00:42:31.689Z,13.54
2022-10-22T00:58:29.932Z,13.51
2022-10-22T01:05:04.061Z,13.53
2022-10-22T01:14:29.006Z,13.53
2022-10-22T01:25:06.086Z,13.51
2022-10-22T01:35:44.194Z,13.51
2022-10-22T01:41:03.089Z,13.51
2022-10-22T01:51:41.141Z,13.5
2022-10-22T02:07:40.182Z,13.48
2022-10-22T02:39:57.030Z,13.39
2022-10-22T02:50:35.627Z,13.33
2022-10-22T02:55:54.795Z,13.3
2022-10-22T03:06:33.468Z,13.27
2022-10-22T03:11:52.671Z,13.24
2022-10-22T03:17:12.109Z,13.22
2022-10-22T03:22:31.665Z,13.2
2022-10-22T03:34:25.881Z,13.14
2022-10-22T03:38:31.928Z,13.14
2022-10-22T03:49:09.764Z,13.09
2022-10-22T03:54:27.872Z,13.07
2022-10-22T04:05:06.443Z,13.03
2022-10-22T04:10:25.667Z,13.03
2022-10-22T04:21:04.107Z,12.97
2022-10-22T04:31:42.453Z,12.99
2022-10-22T04:37:01.349Z,12.96
2022-10-22T04:47:39.166Z,12.93
2022-10-22T04:52:59.432Z,12.9
2022-10-22T05:03:47.152Z,12.9
2022-10-22T05:15:31.379Z,12.88
2022-10-22T05:19:35.266Z,12.88
2022-10-22T05:24:54.077Z,12.85
2022-10-22T05:30:13.567Z,12.83
2022-10-22T05:46:10.756Z,12.73
2022-10-22T06:02:08.356Z,12.69
2022-10-22T06:12:54.895Z,12.62
2022-10-22T06:18:06.362Z,12.6
2022-10-22T06:28:45.421Z,12.6
2022-10-22T06:50:01.874Z,12.65
2022-10-22T06:55:21.365Z,12.7
2022-10-22T07:21:59.492Z,12.88
2022-10-22T07:37:56.651Z,13.02
2022-10-22T07:48:35.239Z,13.23
2022-10-22T07:53:54.501Z,13.3
2022-10-22T08:04:32.922Z,13.48
2022-10-22T08:20:31.243Z,13.6
2022-10-22T08:31:08.513Z,13.85
2022-10-22T08:36:27.924Z,14.07
2022-10-22T08:47:07.034Z,14.29
2022-10-22T09:19:03.354Z,15.89
2022-10-22T09:32:55.910Z,16.54
2022-10-22T09:45:39.989Z,17.41
2022-10-22T10:01:35.966Z,18.21
2022-10-22T10:12:14.146Z,18.69
2022-10-22T10:17:33.792Z,18.95
2022-10-22T10:29:27.062Z,19.32
2022-10-22T10:44:09.551Z,19.58
2022-10-22T10:54:47.071Z,19.71
2022-10-22T11:00:06.508Z,19.85
2022-10-22T11:06:40.652Z,19.93
2022-10-22T11:10:44.859Z,20.04
2022-10-22T11:16:04.111Z,20.1
2022-10-22T11:26:41.740Z,20.21
2022-10-22T11:42:40.150Z,20.09
2022-10-22T11:47:58.302Z,20.09
2022-10-22T11:53:17.856Z,20.12
2022-10-22T11:58:37.424Z,20.16
2022-10-22T12:09:15.181Z,20.29
2022-10-22T12:21:08.476Z,20.33
2022-10-22T12:25:13.101Z,20.2
2022-10-22T12:35:53.090Z,20.04
2022-10-22T12:41:11.535Z,19.92
2022-10-22T12:51:49.993Z,19.83
2022-10-22T12:57:09.039Z,19.9
2022-10-22T13:18:27.398Z,19.86
2022-10-22T13:23:45.579Z,19.75
2022-10-22T13:34:23.308Z,19.57
2022-10-22T13:40:57.466Z,19.54
2022-10-22T13:45:12.870Z,19.48
2022-10-22T14:00:57.353Z,19.24
2022-10-22T14:11:36.053Z,19.12
2022-10-22T14:27:34.817Z,19.03
2022-10-22T14:38:11.594Z,18.95
2022-10-22T14:43:30.460Z,18.87
2022-10-22T14:54:09.524Z,18.7
2022-10-22T14:59:29.111Z,18.62
2022-10-22T15:10:07.769Z,18.46
2022-10-22T15:26:06.033Z,18.25
2022-10-22T15:42:03.671Z,17.95
2022-10-22T15:52:39.920Z,17.81
2022-10-22T15:58:07.745Z,17.75
2022-10-22T16:03:17.813Z,17.67
2022-10-22T16:08:37.252Z,17.6
2022-10-22T16:13:56.356Z,17.52
2022-10-22T16:19:15.718Z,17.41
2022-10-22T16:24:35.666Z,17.35
2022-10-22T16:35:13.952Z,17.18
2022-10-22T16:40:34.081Z,17.08
2022-10-22T16:51:12.464Z,16.91
2022-10-22T17:07:10.836Z,16.62
2022-10-22T17:23:08.876Z,16.39
2022-10-22T17:35:03.121Z,16.19
2022-10-22T17:39:08.497Z,16.12
2022-10-22T17:49:45.308Z,15.95
2022-10-22T17:55:04.944Z,15.88
2022-10-22T18:00:24.897Z,15.82
2022-10-22T18:05:42.891Z,15.77
2022-10-22T18:16:21.691Z,15.62
2022-10-22T18:21:40.640Z,15.54
2022-10-22T18:32:19.224Z,15.4
2022-10-22T18:48:18.084Z,15.23
2022-10-22T18:58:56.062Z,15.11
2022-10-22T19:04:15.377Z,15.03
2022-10-22T19:14:53.547Z,14.93
2022-10-22T19:20:13.101Z,14.84
2022-10-22T19:25:32.728Z,14.83
2022-10-22T19:30:50.854Z,14.73
2022-10-22T19:53:23.071Z,14.55
2022-10-22T19:57:27.749Z,14.49
2022-10-22T20:02:46.888Z,14.45
2022-10-22T20:13:24.857Z,14.35
2022-10-22T20:19:51.280Z,14.33
2022-10-22T20:24:37.248Z,14.24
2022-10-22T20:29:56.486Z,14.19
2022-10-22T20:40:35.113Z,14.11
2022-10-22T20:56:32.541Z,14.01
2022-10-22T21:12:31.301Z,13.88
2022-10-22T21:23:09.797Z,13.82
2022-10-22T21:28:27.964Z,13.75
2022-10-22T21:39:06.244Z,13.68
2022-10-22T21:51:00.020Z,13.61
2022-10-22T21:55:04.884Z,13.58
2022-10-22T22:08:57.411Z,13.51
2022-10-22T22:11:03.485Z,13.47
2022-10-22T22:21:41.580Z,13.42
2022-10-22T22:48:16.300Z,13.22
2022-10-22T22:53:35.448Z,13.17
2022-10-22T23:04:13.970Z,13.12
2022-10-22T23:20:11.298Z,13
2022-10-22T23:30:50.052Z,12.92
2022-10-22T23:36:10.209Z,12.92
2022-10-22T23:46:48.764Z,12.8
2022-10-22T23:52:07.788Z,12.76
